sensor_id;sensor_type;location;lat;lon;timestamp;P1;durP1;ratioP1;P2;durP2;ratioP2
51190;SDS011;37253;48.736;9.294;2023-01-28T00:01:15;1.90;;;1.53;;
51190;SDS011;37253;48.736;9.294;2023-01-28T00:03:15;2.15;;;1.70;;
51190;SDS011;37253;48.736;9.294;2023-01-28T00:05:16;1.63;;;1.40;;
51190;SDS011;37253;48.736;9.294;2023-01-28T00:07:16;1.75;;;1.60;;
51190;SDS011;37253;48.736;9.294;2023-01-28T00:09:18;1.73;;;1.45;;
51190;SDS011;37253;48.736;9.294;2023-01-28T00:11:18;1.83;;;1.40;;
51190;SDS011;37253;48.736;9.294;2023-01-28T00:13:20;1.75;;;1.45;;
51190;SDS011;37253;48.736;9.294;2023-01-28T00:15:20;2.40;;;1.40;;
51190;SDS011;37253;48.736;9.294;2023-01-28T00:17:21;2.45;;;1.35;;
51190;SDS011;37253;48.736;9.294;2023-01-28T00:19:22;1.80;;;1.30;;
51190;SDS011;37253;48.736;9.294;2023-01-28T00:21:22;2.17;;;1.45;;
51190;SDS011;37253;48.736;9.294;2023-01-28T00:23:23;2.13;;;1.50;;
51190;SDS011;37253;48.736;9.294;2023-01-28T00:25:24;2.45;;;1.25;;
51190;SDS011;37253;48.736;9.294;2023-01-28T00:27:24;1.90;;;1.33;;
51190;SDS011;37253;48.736;9.294;2023-01-28T00:29:24;1.58;;;1.20;;
51190;SDS011;37253;48.736;9.294;2023-01-28T00:31:25;1.52;;;1.30;;
51190;SDS011;37253;48.736;9.294;2023-01-28T00:33:26;2.20;;;1.40;;
51190;SDS011;37253;48.736;9.294;2023-01-28T00:35:28;1.42;;;1.27;;
51190;SDS011;37253;48.736;9.294;2023-01-28T00:37:29;1.60;;;1.50;;
51190;SDS011;37253;48.736;9.294;2023-01-28T00:39:29;1.88;;;1.65;;
51190;SDS011;37253;48.736;9.294;2023-01-28T00:41:29;1.75;;;1.42;;
51190;SDS011;37253;48.736;9.294;2023-01-28T00:43:29;1.42;;;1.30;;
51190;SDS011;37253;48.736;9.294;2023-01-28T00:45:30;1.50;;;1.40;;
51190;SDS011;37253;48.736;9.294;2023-01-28T00:47:30;1.75;;;1.40;;
51190;SDS011;37253;48.736;9.294;2023-01-28T00:49:30;1.80;;;1.40;;
51190;SDS011;37253;48.736;9.294;2023-01-28T00:51:31;1.92;;;1.38;;
51190;SDS011;37253;48.736;9.294;2023-01-28T00:53:31;1.60;;;1.50;;
51190;SDS011;37253;48.736;9.294;2023-01-28T00:55:33;1.48;;;1.38;;
51190;SDS011;37253;48.736;9.294;2023-01-28T00:57:33;2.15;;;1.40;;
51190;SDS011;37253;48.736;9.294;2023-01-28T00:59:34;1.38;;;1.27;;
51190;SDS011;37253;48.736;9.294;2023-01-28T01:01:34;1.50;;;1.40;;
51190;SDS011;37253;48.736;9.294;2023-01-28T01:03:34;1.20;;;1.10;;
51190;SDS011;37253;48.736;9.294;2023-01-28T01:05:35;1.33;;;1.23;;
51190;SDS011;37253;48.736;9.294;2023-01-28T01:07:35;1.60;;;1.50;;
51190;SDS011;37253;48.736;9.294;2023-01-28T01:09:40;2.70;;;1.45;;
51190;SDS011;37253;48.736;9.294;2023-01-28T01:11:40;1.70;;;1.30;;
51190;SDS011;37253;48.736;9.294;2023-01-28T01:13:41;1.33;;;1.20;;
51190;SDS011;37253;48.736;9.294;2023-01-28T01:15:41;2.55;;;1.25;;
51190;SDS011;37253;48.736;9.294;2023-01-28T01:17:43;1.77;;;1.40;;
51190;SDS011;37253;48.736;9.294;2023-01-28T01:19:44;2.00;;;1.33;;
51190;SDS011;37253;48.736;9.294;2023-01-28T01:21:44;1.63;;;1.50;;
51190;SDS011;37253;48.736;9.294;2023-01-28T01:23:49;1.30;;;1.10;;
51190;SDS011;37253;48.736;9.294;2023-01-28T01:25:50;3.97;;;1.30;;
51190;SDS011;37253;48.736;9.294;2023-01-28T01:27:50;1.85;;;1.40;;
51190;SDS011;37253;48.736;9.294;2023-01-28T01:29:51;1.45;;;1.20;;
51190;SDS011;37253;48.736;9.294;2023-01-28T01:31:51;1.60;;;1.20;;
51190;SDS011;37253;48.736;9.294;2023-01-28T01:33:51;2.33;;;1.45;;
51190;SDS011;37253;48.736;9.294;2023-01-28T01:35:52;1.20;;;1.10;;
51190;SDS011;37253;48.736;9.294;2023-01-28T01:37:56;1.58;;;1.40;;
51190;SDS011;37253;48.736;9.294;2023-01-28T01:39:56;1.60;;;1.40;;
51190;SDS011;37253;48.736;9.294;2023-01-28T01:41:56;1.88;;;1.23;;
51190;SDS011;37253;48.736;9.294;2023-01-28T01:44:00;1.65;;;1.35;;
51190;SDS011;37253;48.736;9.294;2023-01-28T01:46:02;1.38;;;1.27;;
51190;SDS011;37253;48.736;9.294;2023-01-28T01:48:03;1.73;;;1.35;;
51190;SDS011;37253;48.736;9.294;2023-01-28T01:50:09;2.80;;;1.30;;
51190;SDS011;37253;48.736;9.294;2023-01-28T01:52:23;1.30;;;1.20;;
51190;SDS011;37253;48.736;9.294;2023-01-28T01:54:25;1.35;;;1.20;;
51190;SDS011;37253;48.736;9.294;2023-01-28T01:56:29;1.38;;;1.27;;
51190;SDS011;37253;48.736;9.294;2023-01-28T01:58:33;1.65;;;1.23;;
51190;SDS011;37253;48.736;9.294;2023-01-28T02:00:35;1.25;;;1.15;;
51190;SDS011;37253;48.736;9.294;2023-01-28T02:02:39;1.30;;;1.20;;
51190;SDS011;37253;48.736;9.294;2023-01-28T02:04:42;2.55;;;1.40;;
51190;SDS011;37253;48.736;9.294;2023-01-28T02:06:43;2.42;;;1.35;;
51190;SDS011;37253;48.736;9.294;2023-01-28T02:08:44;1.67;;;1.10;;
51190;SDS011;37253;48.736;9.294;2023-01-28T02:10:45;1.35;;;1.10;;
51190;SDS011;37253;48.736;9.294;2023-01-28T02:12:52;1.10;;;1.00;;
51190;SDS011;37253;48.736;9.294;2023-01-28T02:14:59;1.23;;;1.13;;
51190;SDS011;37253;48.736;9.294;2023-01-28T02:17:05;1.20;;;1.10;;
51190;SDS011;37253;48.736;9.294;2023-01-28T02:19:06;1.30;;;1.20;;
51190;SDS011;37253;48.736;9.294;2023-01-28T02:29:07;1.60;;;1.50;;
51190;SDS011;37253;48.736;9.294;2023-01-28T02:33:40;2.05;;;1.50;;
51190;SDS011;37253;48.736;9.294;2023-01-28T02:35:51;1.83;;;1.20;;
51190;SDS011;37253;48.736;9.294;2023-01-28T02:37:54;1.80;;;1.10;;
51190;SDS011;37253;48.736;9.294;2023-01-28T02:40:10;1.30;;;1.20;;
51190;SDS011;37253;48.736;9.294;2023-01-28T02:42:14;1.40;;;1.30;;
51190;SDS011;37253;48.736;9.294;2023-01-28T02:44:30;1.40;;;1.30;;
51190;SDS011;37253;48.736;9.294;2023-01-28T02:48:49;1.40;;;1.13;;
51190;SDS011;37253;48.736;9.294;2023-01-28T02:50:56;1.33;;;1.20;;
51190;SDS011;37253;48.736;9.294;2023-01-28T02:53:18;1.58;;;1.20;;
51190;SDS011;37253;48.736;9.294;2023-01-28T02:58:00;1.10;;;0.95;;
51190;SDS011;37253;48.736;9.294;2023-01-28T03:00:09;1.20;;;1.10;;
51190;SDS011;37253;48.736;9.294;2023-01-28T03:02:15;1.77;;;1.13;;
51190;SDS011;37253;48.736;9.294;2023-01-28T03:04:21;1.30;;;1.05;;
51190;SDS011;37253;48.736;9.294;2023-01-28T03:06:35;1.27;;;1.10;;
51190;SDS011;37253;48.736;9.294;2023-01-28T03:11:21;1.20;;;1.10;;
51190;SDS011;37253;48.736;9.294;2023-01-28T03:13:41;1.13;;;1.02;;
51190;SDS011;37253;48.736;9.294;2023-01-28T03:16:01;1.45;;;1.13;;
51190;SDS011;37253;48.736;9.294;2023-01-28T03:18:27;1.20;;;1.10;;
51190;SDS011;37253;48.736;9.294;2023-01-28T03:23:36;1.27;;;1.17;;
51190;SDS011;37253;48.736;9.294;2023-01-28T03:25:59;1.08;;;0.98;;
51190;SDS011;37253;48.736;9.294;2023-01-28T03:28:19;1.52;;;1.10;;
51190;SDS011;37253;48.736;9.294;2023-01-28T03:30:39;1.35;;;1.10;;
51190;SDS011;37253;48.736;9.294;2023-01-28T03:33:06;0.93;;;0.90;;
51190;SDS011;37253;48.736;9.294;2023-01-28T03:35:27;1.30;;;1.13;;
51190;SDS011;37253;48.736;9.294;2023-01-28T03:37:51;1.08;;;0.98;;
51190;SDS011;37253;48.736;9.294;2023-01-28T03:39:51;1.30;;;1.20;;
51190;SDS011;37253;48.736;9.294;2023-01-28T03:43:56;1.25;;;1.10;;
51190;SDS011;37253;48.736;9.294;2023-01-28T03:45:57;1.20;;;1.10;;
51190;SDS011;37253;48.736;9.294;2023-01-28T03:47:57;1.55;;;1.10;;
51190;SDS011;37253;48.736;9.294;2023-01-28T03:49:58;1.52;;;1.02;;
51190;SDS011;37253;48.736;9.294;2023-01-28T03:52:01;1.40;;;1.10;;
51190;SDS011;37253;48.736;9.294;2023-01-28T03:54:01;1.17;;;1.08;;
51190;SDS011;37253;48.736;9.294;2023-01-28T03:56:02;1.00;;;0.90;;
51190;SDS011;37253;48.736;9.294;2023-01-28T03:58:02;1.10;;;1.00;;
51190;SDS011;37253;48.736;9.294;2023-01-28T04:00:05;1.10;;;1.00;;
51190;SDS011;37253;48.736;9.294;2023-01-28T04:02:06;1.10;;;1.00;;
51190;SDS011;37253;48.736;9.294;2023-01-28T04:04:07;1.10;;;1.00;;
51190;SDS011;37253;48.736;9.294;2023-01-28T04:06:22;1.10;;;1.00;;
51190;SDS011;37253;48.736;9.294;2023-01-28T04:08:22;1.30;;;1.10;;
51190;SDS011;37253;48.736;9.294;2023-01-28T04:10:22;1.10;;;1.00;;
51190;SDS011;37253;48.736;9.294;2023-01-28T04:12:23;1.00;;;0.93;;
51190;SDS011;37253;48.736;9.294;2023-01-28T04:14:23;1.75;;;1.05;;
51190;SDS011;37253;48.736;9.294;2023-01-28T04:16:23;1.10;;;1.00;;
51190;SDS011;37253;48.736;9.294;2023-01-28T04:18:25;1.38;;;1.05;;
51190;SDS011;37253;48.736;9.294;2023-01-28T04:20:26;1.10;;;1.00;;
51190;SDS011;37253;48.736;9.294;2023-01-28T04:22:26;1.20;;;1.10;;
51190;SDS011;37253;48.736;9.294;2023-01-28T04:24:27;1.38;;;1.20;;
51190;SDS011;37253;48.736;9.294;2023-01-28T04:26:27;1.10;;;1.00;;
51190;SDS011;37253;48.736;9.294;2023-01-28T04:28:27;1.10;;;0.93;;
51190;SDS011;37253;48.736;9.294;2023-01-28T04:30:27;0.80;;;0.70;;
51190;SDS011;37253;48.736;9.294;2023-01-28T04:32:28;1.00;;;0.90;;
51190;SDS011;37253;48.736;9.294;2023-01-28T04:34:28;1.13;;;1.00;;
51190;SDS011;37253;48.736;9.294;2023-01-28T04:36:28;1.35;;;1.00;;
51190;SDS011;37253;48.736;9.294;2023-01-28T04:38:29;1.02;;;0.93;;
51190;SDS011;37253;48.736;9.294;2023-01-28T04:40:29;1.00;;;0.90;;
51190;SDS011;37253;48.736;9.294;2023-01-28T04:42:29;1.10;;;1.00;;
51190;SDS011;37253;48.736;9.294;2023-01-28T04:44:30;1.20;;;1.10;;
51190;SDS011;37253;48.736;9.294;2023-01-28T04:46:30;0.88;;;0.88;;
51190;SDS011;37253;48.736;9.294;2023-01-28T04:48:31;1.05;;;0.95;;
51190;SDS011;37253;48.736;9.294;2023-01-28T04:50:31;0.80;;;0.80;;
51190;SDS011;37253;48.736;9.294;2023-01-28T04:52:31;0.90;;;0.90;;
51190;SDS011;37253;48.736;9.294;2023-01-28T04:54:32;1.17;;;1.00;;
51190;SDS011;37253;48.736;9.294;2023-01-28T04:56:32;0.80;;;0.80;;
51190;SDS011;37253;48.736;9.294;2023-01-28T04:58:32;0.95;;;0.90;;
51190;SDS011;37253;48.736;9.294;2023-01-28T05:00:33;1.20;;;0.90;;
51190;SDS011;37253;48.736;9.294;2023-01-28T05:02:33;0.80;;;0.80;;
51190;SDS011;37253;48.736;9.294;2023-01-28T05:04:33;1.00;;;0.90;;
51190;SDS011;37253;48.736;9.294;2023-01-28T05:06:33;1.13;;;0.90;;
51190;SDS011;37253;48.736;9.294;2023-01-28T05:08:34;1.48;;;0.90;;
51190;SDS011;37253;48.736;9.294;2023-01-28T05:10:34;1.13;;;1.02;;
51190;SDS011;37253;48.736;9.294;2023-01-28T05:12:34;0.80;;;0.75;;
51190;SDS011;37253;48.736;9.294;2023-01-28T05:14:35;0.82;;;0.82;;
51190;SDS011;37253;48.736;9.294;2023-01-28T05:16:35;1.27;;;0.85;;
51190;SDS011;37253;48.736;9.294;2023-01-28T05:18:35;1.15;;;0.90;;
51190;SDS011;37253;48.736;9.294;2023-01-28T05:20:36;0.95;;;0.88;;
51190;SDS011;37253;48.736;9.294;2023-01-28T05:22:36;0.73;;;0.73;;
51190;SDS011;37253;48.736;9.294;2023-01-28T05:24:36;1.25;;;1.02;;
51190;SDS011;37253;48.736;9.294;2023-01-28T05:26:37;1.00;;;0.90;;
51190;SDS011;37253;48.736;9.294;2023-01-28T05:28:37;0.90;;;0.80;;
51190;SDS011;37253;48.736;9.294;2023-01-28T05:30:37;1.00;;;0.90;;
51190;SDS011;37253;48.736;9.294;2023-01-28T05:32:38;1.30;;;0.90;;
51190;SDS011;37253;48.736;9.294;2023-01-28T05:34:38;1.35;;;0.90;;
51190;SDS011;37253;48.736;9.294;2023-01-28T05:36:38;1.10;;;1.00;;
51190;SDS011;37253;48.736;9.294;2023-01-28T05:38:40;0.98;;;0.80;;
51190;SDS011;37253;48.736;9.294;2023-01-28T05:40:40;1.02;;;0.80;;
51190;SDS011;37253;48.736;9.294;2023-01-28T05:42:40;0.85;;;0.85;;
51190;SDS011;37253;48.736;9.294;2023-01-28T05:44:41;0.70;;;0.70;;
51190;SDS011;37253;48.736;9.294;2023-01-28T05:46:41;0.95;;;0.90;;
51190;SDS011;37253;48.736;9.294;2023-01-28T05:48:44;1.10;;;1.00;;
51190;SDS011;37253;48.736;9.294;2023-01-28T05:50:47;0.80;;;0.80;;
51190;SDS011;37253;48.736;9.294;2023-01-28T05:52:48;1.00;;;0.90;;
51190;SDS011;37253;48.736;9.294;2023-01-28T05:54:48;1.35;;;0.80;;
51190;SDS011;37253;48.736;9.294;2023-01-28T05:56:48;0.98;;;0.90;;
51190;SDS011;37253;48.736;9.294;2023-01-28T05:58:49;0.98;;;0.80;;
51190;SDS011;37253;48.736;9.294;2023-01-28T06:00:49;0.90;;;0.90;;
51190;SDS011;37253;48.736;9.294;2023-01-28T06:02:50;0.77;;;0.77;;
51190;SDS011;37253;48.736;9.294;2023-01-28T06:04:51;1.00;;;0.90;;
51190;SDS011;37253;48.736;9.294;2023-01-28T06:06:51;1.02;;;0.93;;
51190;SDS011;37253;48.736;9.294;2023-01-28T06:08:51;0.68;;;0.63;;
51190;SDS011;37253;48.736;9.294;2023-01-28T06:10:52;0.80;;;0.80;;
51190;SDS011;37253;48.736;9.294;2023-01-28T06:12:52;3.60;;;0.80;;
51190;SDS011;37253;48.736;9.294;2023-01-28T06:14:52;1.10;;;1.00;;
51190;SDS011;37253;48.736;9.294;2023-01-28T06:16:52;1.40;;;0.80;;
51190;SDS011;37253;48.736;9.294;2023-01-28T06:18:53;1.00;;;0.75;;
51190;SDS011;37253;48.736;9.294;2023-01-28T06:20:53;0.82;;;0.80;;
51190;SDS011;37253;48.736;9.294;2023-01-28T06:22:53;0.95;;;0.82;;
51190;SDS011;37253;48.736;9.294;2023-01-28T06:24:54;0.80;;;0.68;;
51190;SDS011;37253;48.736;9.294;2023-01-28T06:26:54;0.80;;;0.80;;
51190;SDS011;37253;48.736;9.294;2023-01-28T06:28:54;0.73;;;0.73;;
51190;SDS011;37253;48.736;9.294;2023-01-28T06:30:55;3.30;;;0.80;;
51190;SDS011;37253;48.736;9.294;2023-01-28T06:32:55;1.10;;;0.80;;
51190;SDS011;37253;48.736;9.294;2023-01-28T06:34:56;1.70;;;0.70;;
51190;SDS011;37253;48.736;9.294;2023-01-28T06:36:56;1.30;;;0.80;;
51190;SDS011;37253;48.736;9.294;2023-01-28T06:38:56;1.40;;;0.88;;
51190;SDS011;37253;48.736;9.294;2023-01-28T06:40:57;0.98;;;0.77;;
51190;SDS011;37253;48.736;9.294;2023-01-28T06:42:58;1.30;;;0.80;;
51190;SDS011;37253;48.736;9.294;2023-01-28T06:44:58;0.80;;;0.80;;
51190;SDS011;37253;48.736;9.294;2023-01-28T06:46:58;2.58;;;0.77;;
51190;SDS011;37253;48.736;9.294;2023-01-28T06:48:59;1.15;;;0.93;;
51190;SDS011;37253;48.736;9.294;2023-01-28T06:50:59;0.95;;;0.70;;
51190;SDS011;37253;48.736;9.294;2023-01-28T06:52:59;0.80;;;0.80;;
51190;SDS011;37253;48.736;9.294;2023-01-28T06:55:00;1.02;;;0.80;;
51190;SDS011;37253;48.736;9.294;2023-01-28T06:57:00;0.80;;;0.80;;
51190;SDS011;37253;48.736;9.294;2023-01-28T06:59:00;0.98;;;0.80;;
51190;SDS011;37253;48.736;9.294;2023-01-28T07:01:01;1.05;;;0.90;;
51190;SDS011;37253;48.736;9.294;2023-01-28T07:03:03;0.80;;;0.70;;
51190;SDS011;37253;48.736;9.294;2023-01-28T07:05:03;2.45;;;0.90;;
51190;SDS011;37253;48.736;9.294;2023-01-28T07:07:04;8.00;;;1.00;;
51190;SDS011;37253;48.736;9.294;2023-01-28T07:09:05;6.38;;;0.90;;
51190;SDS011;37253;48.736;9.294;2023-01-28T07:11:06;2.47;;;0.85;;
51190;SDS011;37253;48.736;9.294;2023-01-28T07:13:06;3.17;;;0.95;;
51190;SDS011;37253;48.736;9.294;2023-01-28T07:15:07;6.82;;;1.30;;
51190;SDS011;37253;48.736;9.294;2023-01-28T07:17:09;3.78;;;0.95;;
51190;SDS011;37253;48.736;9.294;2023-01-28T07:19:10;6.45;;;1.13;;
51190;SDS011;37253;48.736;9.294;2023-01-28T07:21:10;4.28;;;1.00;;
51190;SDS011;37253;48.736;9.294;2023-01-28T07:23:10;3.35;;;1.00;;
51190;SDS011;37253;48.736;9.294;2023-01-28T07:25:11;5.10;;;1.00;;
51190;SDS011;37253;48.736;9.294;2023-01-28T07:27:12;8.43;;;1.40;;
51190;SDS011;37253;48.736;9.294;2023-01-28T07:29:12;4.35;;;1.23;;
51190;SDS011;37253;48.736;9.294;2023-01-28T07:31:13;6.45;;;1.27;;
51190;SDS011;37253;48.736;9.294;2023-01-28T07:33:13;7.38;;;1.20;;
51190;SDS011;37253;48.736;9.294;2023-01-28T07:35:13;3.25;;;1.20;;
51190;SDS011;37253;48.736;9.294;2023-01-28T07:37:14;4.60;;;1.48;;
51190;SDS011;37253;48.736;9.294;2023-01-28T07:39:15;4.13;;;1.30;;
51190;SDS011;37253;48.736;9.294;2023-01-28T07:41:15;2.65;;;1.25;;
51190;SDS011;37253;48.736;9.294;2023-01-28T07:43:15;3.90;;;1.17;;
51190;SDS011;37253;48.736;9.294;2023-01-28T07:45:16;8.07;;;1.30;;
51190;SDS011;37253;48.736;9.294;2023-01-28T07:47:16;8.52;;;1.45;;
51190;SDS011;37253;48.736;9.294;2023-01-28T07:49:16;7.53;;;1.58;;
51190;SDS011;37253;48.736;9.294;2023-01-28T07:51:17;5.93;;;1.20;;
51190;SDS011;37253;48.736;9.294;2023-01-28T07:53:17;4.78;;;1.48;;
51190;SDS011;37253;48.736;9.294;2023-01-28T07:55:18;4.47;;;1.45;;
51190;SDS011;37253;48.736;9.294;2023-01-28T07:57:18;5.55;;;1.20;;
51190;SDS011;37253;48.736;9.294;2023-01-28T08:01:22;6.88;;;1.60;;
51190;SDS011;37253;48.736;9.294;2023-01-28T08:03:22;6.22;;;1.30;;
51190;SDS011;37253;48.736;9.294;2023-01-28T08:05:23;4.75;;;1.38;;
51190;SDS011;37253;48.736;9.294;2023-01-28T08:07:26;4.40;;;1.35;;
51190;SDS011;37253;48.736;9.294;2023-01-28T08:09:26;4.10;;;1.20;;
51190;SDS011;37253;48.736;9.294;2023-01-28T08:11:28;4.57;;;1.58;;
51190;SDS011;37253;48.736;9.294;2023-01-28T08:13:28;6.68;;;1.50;;
51190;SDS011;37253;48.736;9.294;2023-01-28T08:15:29;4.63;;;1.75;;
51190;SDS011;37253;48.736;9.294;2023-01-28T08:17:29;4.10;;;1.40;;
51190;SDS011;37253;48.736;9.294;2023-01-28T08:19:30;3.03;;;1.30;;
51190;SDS011;37253;48.736;9.294;2023-01-28T08:21:30;3.85;;;1.30;;
51190;SDS011;37253;48.736;9.294;2023-01-28T08:23:30;2.58;;;1.23;;
51190;SDS011;37253;48.736;9.294;2023-01-28T08:25:33;3.53;;;1.35;;
51190;SDS011;37253;48.736;9.294;2023-01-28T08:27:33;2.40;;;1.10;;
51190;SDS011;37253;48.736;9.294;2023-01-28T08:29:34;4.80;;;1.60;;
51190;SDS011;37253;48.736;9.294;2023-01-28T08:31:34;3.35;;;1.20;;
51190;SDS011;37253;48.736;9.294;2023-01-28T08:33:34;4.28;;;1.33;;
51190;SDS011;37253;48.736;9.294;2023-01-28T08:35:35;3.88;;;1.50;;
51190;SDS011;37253;48.736;9.294;2023-01-28T08:37:35;2.80;;;1.17;;
51190;SDS011;37253;48.736;9.294;2023-01-28T08:39:35;3.40;;;1.25;;
51190;SDS011;37253;48.736;9.294;2023-01-28T08:41:36;3.75;;;1.50;;
51190;SDS011;37253;48.736;9.294;2023-01-28T08:43:36;5.53;;;1.50;;
51190;SDS011;37253;48.736;9.294;2023-01-28T08:45:36;3.33;;;1.23;;
51190;SDS011;37253;48.736;9.294;2023-01-28T08:47:52;5.00;;;1.52;;
51190;SDS011;37253;48.736;9.294;2023-01-28T08:49:54;3.38;;;1.33;;
51190;SDS011;37253;48.736;9.294;2023-01-28T08:51:54;2.67;;;1.20;;
51190;SDS011;37253;48.736;9.294;2023-01-28T08:53:55;3.42;;;1.60;;
51190;SDS011;37253;48.736;9.294;2023-01-28T08:55:55;2.22;;;1.30;;
51190;SDS011;37253;48.736;9.294;2023-01-28T08:57:55;6.78;;;1.50;;
51190;SDS011;37253;48.736;9.294;2023-01-28T08:59:56;3.97;;;1.30;;
51190;SDS011;37253;48.736;9.294;2023-01-28T09:01:56;3.83;;;1.50;;
51190;SDS011;37253;48.736;9.294;2023-01-28T09:03:57;3.15;;;1.50;;
51190;SDS011;37253;48.736;9.294;2023-01-28T09:06:01;4.43;;;1.35;;
51190;SDS011;37253;48.736;9.294;2023-01-28T09:08:02;2.33;;;1.23;;
51190;SDS011;37253;48.736;9.294;2023-01-28T09:10:03;4.80;;;1.30;;
51190;SDS011;37253;48.736;9.294;2023-01-28T09:12:04;3.08;;;1.40;;
51190;SDS011;37253;48.736;9.294;2023-01-28T09:14:04;2.97;;;1.35;;
51190;SDS011;37253;48.736;9.294;2023-01-28T09:16:05;4.90;;;1.40;;
51190;SDS011;37253;48.736;9.294;2023-01-28T09:18:06;2.97;;;1.50;;
51190;SDS011;37253;48.736;9.294;2023-01-28T09:20:06;3.97;;;1.30;;
51190;SDS011;37253;48.736;9.294;2023-01-28T09:22:07;4.57;;;1.40;;
51190;SDS011;37253;48.736;9.294;2023-01-28T09:24:10;5.15;;;1.50;;
51190;SDS011;37253;48.736;9.294;2023-01-28T09:26:11;2.95;;;1.10;;
51190;SDS011;37253;48.736;9.294;2023-01-28T09:28:11;2.42;;;1.20;;
51190;SDS011;37253;48.736;9.294;2023-01-28T09:30:12;3.60;;;1.45;;
51190;SDS011;37253;48.736;9.294;2023-01-28T09:32:12;2.22;;;1.20;;
51190;SDS011;37253;48.736;9.294;2023-01-28T09:34:13;2.80;;;1.23;;
51190;SDS011;37253;48.736;9.294;2023-01-28T09:36:16;3.08;;;1.30;;
51190;SDS011;37253;48.736;9.294;2023-01-28T09:38:16;3.00;;;1.20;;
51190;SDS011;37253;48.736;9.294;2023-01-28T09:40:22;4.22;;;1.50;;
51190;SDS011;37253;48.736;9.294;2023-01-28T09:47:28;2.35;;;1.20;;
51190;SDS011;37253;48.736;9.294;2023-01-28T09:49:43;1.83;;;1.20;;
51190;SDS011;37253;48.736;9.294;2023-01-28T09:51:49;1.98;;;1.23;;
51190;SDS011;37253;48.736;9.294;2023-01-28T09:53:51;1.83;;;1.10;;
51190;SDS011;37253;48.736;9.294;2023-01-28T09:56:00;2.13;;;1.23;;
51190;SDS011;37253;48.736;9.294;2023-01-28T09:58:04;4.88;;;1.30;;
51190;SDS011;37253;48.736;9.294;2023-01-28T10:00:10;3.35;;;1.30;;
51190;SDS011;37253;48.736;9.294;2023-01-28T10:02:27;3.60;;;1.20;;
51190;SDS011;37253;48.736;9.294;2023-01-28T10:04:50;3.20;;;1.40;;
51190;SDS011;37253;48.736;9.294;2023-01-28T10:07:15;2.45;;;1.08;;
51190;SDS011;37253;48.736;9.294;2023-01-28T10:09:30;1.60;;;1.27;;
51190;SDS011;37253;48.736;9.294;2023-01-28T10:16:20;3.05;;;1.20;;
51190;SDS011;37253;48.736;9.294;2023-01-28T10:18:28;1.98;;;1.20;;
51190;SDS011;37253;48.736;9.294;2023-01-28T10:20:36;1.75;;;1.20;;
51190;SDS011;37253;48.736;9.294;2023-01-28T10:22:44;2.40;;;1.20;;
51190;SDS011;37253;48.736;9.294;2023-01-28T10:24:51;2.25;;;1.35;;
51190;SDS011;37253;48.736;9.294;2023-01-28T10:26:57;1.60;;;1.15;;
51190;SDS011;37253;48.736;9.294;2023-01-28T10:28:59;2.42;;;1.40;;
51190;SDS011;37253;48.736;9.294;2023-01-28T10:31:09;3.10;;;1.10;;
51190;SDS011;37253;48.736;9.294;2023-01-28T10:33:15;2.38;;;1.30;;
51190;SDS011;37253;48.736;9.294;2023-01-28T10:35:18;1.95;;;1.27;;
51190;SDS011;37253;48.736;9.294;2023-01-28T10:37:20;2.42;;;1.23;;
51190;SDS011;37253;48.736;9.294;2023-01-28T10:39:21;2.70;;;1.00;;
51190;SDS011;37253;48.736;9.294;2023-01-28T10:41:21;2.63;;;1.20;;
51190;SDS011;37253;48.736;9.294;2023-01-28T10:43:22;2.30;;;1.30;;
51190;SDS011;37253;48.736;9.294;2023-01-28T10:45:24;1.85;;;1.20;;
51190;SDS011;37253;48.736;9.294;2023-01-28T10:47:40;1.92;;;1.38;;
51190;SDS011;37253;48.736;9.294;2023-01-28T10:49:45;1.88;;;1.27;;
51190;SDS011;37253;48.736;9.294;2023-01-28T10:51:47;1.75;;;1.20;;
51190;SDS011;37253;48.736;9.294;2023-01-28T10:53:47;2.50;;;1.33;;
51190;SDS011;37253;48.736;9.294;2023-01-28T10:55:49;1.65;;;1.20;;
51190;SDS011;37253;48.736;9.294;2023-01-28T10:57:51;1.73;;;1.20;;
51190;SDS011;37253;48.736;9.294;2023-01-28T10:59:52;4.03;;;1.40;;
51190;SDS011;37253;48.736;9.294;2023-01-28T11:01:57;3.28;;;1.38;;
51190;SDS011;37253;48.736;9.294;2023-01-28T11:03:59;1.63;;;1.20;;
51190;SDS011;37253;48.736;9.294;2023-01-28T11:05:59;1.95;;;1.38;;
51190;SDS011;37253;48.736;9.294;2023-01-28T11:08:13;1.90;;;1.27;;
51190;SDS011;37253;48.736;9.294;2023-01-28T11:10:49;2.72;;;1.30;;
51190;SDS011;37253;48.736;9.294;2023-01-28T11:12:42;2.22;;;1.40;;
51190;SDS011;37253;48.736;9.294;2023-01-28T11:14:48;1.95;;;1.30;;
51190;SDS011;37253;48.736;9.294;2023-01-28T11:16:59;1.65;;;1.10;;
51190;SDS011;37253;48.736;9.294;2023-01-28T11:19:01;2.15;;;1.20;;
51190;SDS011;37253;48.736;9.294;2023-01-28T11:21:05;6.32;;;1.40;;
51190;SDS011;37253;48.736;9.294;2023-01-28T11:23:15;2.92;;;1.25;;
51190;SDS011;37253;48.736;9.294;2023-01-28T11:27:29;1.83;;;1.20;;
51190;SDS011;37253;48.736;9.294;2023-01-28T11:29:31;1.95;;;1.40;;
51190;SDS011;37253;48.736;9.294;2023-01-28T11:31:36;2.55;;;1.40;;
51190;SDS011;37253;48.736;9.294;2023-01-28T11:33:58;1.90;;;1.10;;
51190;SDS011;37253;48.736;9.294;2023-01-28T11:38:18;2.13;;;1.40;;
51190;SDS011;37253;48.736;9.294;2023-01-28T11:40:20;2.25;;;1.33;;
51190;SDS011;37253;48.736;9.294;2023-01-28T11:42:21;2.38;;;1.40;;
51190;SDS011;37253;48.736;9.294;2023-01-28T11:44:25;2.05;;;1.45;;
51190;SDS011;37253;48.736;9.294;2023-01-28T11:46:47;2.15;;;1.20;;
51190;SDS011;37253;48.736;9.294;2023-01-28T11:51:03;4.30;;;1.20;;
51190;SDS011;37253;48.736;9.294;2023-01-28T11:55:27;3.05;;;1.33;;
51190;SDS011;37253;48.736;9.294;2023-01-28T11:57:41;3.88;;;1.20;;
51190;SDS011;37253;48.736;9.294;2023-01-28T12:07:22;2.00;;;1.45;;
51190;SDS011;37253;48.736;9.294;2023-01-28T12:16:32;1.52;;;1.10;;
51190;SDS011;37253;48.736;9.294;2023-01-28T12:21:05;3.25;;;1.63;;
51190;SDS011;37253;48.736;9.294;2023-01-28T12:23:11;2.88;;;1.98;;
51190;SDS011;37253;48.736;9.294;2023-01-28T12:29:46;6.38;;;1.90;;
51190;SDS011;37253;48.736;9.294;2023-01-28T12:36:55;3.30;;;1.88;;
51190;SDS011;37253;48.736;9.294;2023-01-28T12:39:02;2.00;;;1.65;;
51190;SDS011;37253;48.736;9.294;2023-01-28T12:41:10;4.15;;;1.60;;
51190;SDS011;37253;48.736;9.294;2023-01-28T12:46:02;3.70;;;2.15;;
51190;SDS011;37253;48.736;9.294;2023-01-28T12:48:10;5.57;;;2.20;;
51190;SDS011;37253;48.736;9.294;2023-01-28T12:50:15;7.82;;;2.72;;
51190;SDS011;37253;48.736;9.294;2023-01-28T12:52:23;4.25;;;2.80;;
51190;SDS011;37253;48.736;9.294;2023-01-28T12:54:30;6.32;;;2.78;;
51190;SDS011;37253;48.736;9.294;2023-01-28T12:56:42;5.97;;;2.42;;
51190;SDS011;37253;48.736;9.294;2023-01-28T12:58:54;3.58;;;2.55;;
51190;SDS011;37253;48.736;9.294;2023-01-28T13:00:57;4.90;;;2.55;;
51190;SDS011;37253;48.736;9.294;2023-01-28T13:07:20;3.63;;;2.63;;
51190;SDS011;37253;48.736;9.294;2023-01-28T13:09:24;6.80;;;2.40;;
51190;SDS011;37253;48.736;9.294;2023-01-28T13:11:29;4.57;;;2.38;;
51190;SDS011;37253;48.736;9.294;2023-01-28T13:13:33;3.50;;;2.35;;
51190;SDS011;37253;48.736;9.294;2023-01-28T13:15:35;5.13;;;2.25;;
51190;SDS011;37253;48.736;9.294;2023-01-28T13:17:38;4.50;;;2.40;;
51190;SDS011;37253;48.736;9.294;2023-01-28T13:19:39;2.78;;;2.10;;
51190;SDS011;37253;48.736;9.294;2023-01-28T13:21:41;3.78;;;2.45;;
51190;SDS011;37253;48.736;9.294;2023-01-28T13:23:47;4.38;;;2.10;;
51190;SDS011;37253;48.736;9.294;2023-01-28T13:25:49;6.35;;;2.30;;
51190;SDS011;37253;48.736;9.294;2023-01-28T13:27:54;5.80;;;2.00;;
51190;SDS011;37253;48.736;9.294;2023-01-28T13:30:00;2.67;;;2.03;;
51190;SDS011;37253;48.736;9.294;2023-01-28T13:32:32;3.30;;;2.17;;
51190;SDS011;37253;48.736;9.294;2023-01-28T13:34:35;4.05;;;2.60;;
51190;SDS011;37253;48.736;9.294;2023-01-28T13:36:38;7.53;;;2.50;;
51190;SDS011;37253;48.736;9.294;2023-01-28T13:38:44;5.85;;;2.30;;
51190;SDS011;37253;48.736;9.294;2023-01-28T13:40:55;5.65;;;2.70;;